Childress Municipal Airport
KCDS : now visible

Airfield :











YOU CAN JOIN US ON...

 
LOGIN :

Register | Disclaimer

   EN    FR    IT 

 









Legend :    VFR   Marginal VFR   IFR   Intensive IFR   Very Intensive IFR
Visi :
Ceiling :
>= 8 km
>= 3000ft
5 to 8 km
1000 to 3000 ft
1500m to 5 km
500 to 1000 ft
800 to 1500m
200 to 500 ft
< 800m
< 200 ft
Symbols :   Thunderstorms  Fog  Heavy snow  Heavy precipitations  Wind > 20 kt






- Airport Elevation : 1954 ft


KCDS - Childress Municipal

CURRENT METAR :
  • 280653Z AUTO 10011KT 10SM CLR 10/07 A2976 RMK AO2 SLP065 T01000072

EXPIRED METARs :
  • 280553Z AUTO 10009KT 10SM CLR 11/08 A2978 RMK AO2 SLP073 T01110078 10172 20111 402110033 50001
  • 280453Z AUTO 10009KT 10SM FEW110 12/08 A2979 RMK AO2 PRESFR SLP078 T01220078
  • 280353Z AUTO 13013KT 10SM BKN110 13/08 A2980 RMK AO2 SLP082 T01330078

TAF KCDS
Valid from the 28 at 06:00 until the 29 at 06:00 UTC


280520Z 2806/2906 09011KT P6SM VCSH OVC100
FM280900 04011KT 4SM -RA BR OVC003
FM281200 36020KT 2SM -RA BR OVC008
FM282100 36022KT P6SM OVC015
FM290300 35011KT P6SM BKN050



MET'MAP, your aeronautical weather chart ! - Copyright ORBIFLY December 2007 - Disclaimer

ORBIFLY MET'MAP TEAM :

Programming & Development : Alexandra Zaïnal
Concept & original design : Baudouin d'Aumeries
Assistance for programming : Marc-Olivier Méhu
Technical & hardware support : Manuel Goepfert

Contact : metmap@orbifly.com




SOURCES & CREDITS :

   NOAA       Earth
Advisory